createdAt,value
2019-02-05T00:00:07.772Z,92.28
2019-02-05T00:00:34.276Z,91.9
2019-02-05T00:01:00.374Z,91.8
2019-02-05T00:01:26.478Z,92.28
2019-02-05T00:01:53.575Z,92.28
2019-02-05T00:02:19.686Z,92.18
2019-02-05T00:02:45.977Z,92.09
2019-02-05T00:03:12.271Z,92.09
2019-02-05T00:03:38.465Z,91.99
2019-02-05T00:04:04.925Z,92.09
2019-02-05T00:04:31.031Z,92.09
2019-02-05T00:04:57.165Z,92.28
2019-02-05T00:05:23.484Z,91.99
2019-02-05T00:05:49.590Z,92.38
2019-02-05T00:06:15.957Z,92.09
2019-02-05T00:06:42.082Z,92.66
2019-02-05T00:07:08.190Z,92.28
2019-02-05T00:07:34.551Z,92.38
2019-02-05T00:08:00.660Z,92.09
2019-02-05T00:08:26.770Z,92.47
2019-02-05T00:08:53.163Z,92.38
2019-02-05T00:09:19.288Z,92.28
2019-02-05T00:09:45.767Z,92.85
2019-02-05T00:10:11.946Z,92.57
2019-02-05T00:10:38.052Z,92.66
2019-02-05T00:11:04.532Z,92.57
2019-02-05T00:11:30.640Z,92.66
2019-02-05T00:11:57.076Z,92.85
2019-02-05T00:12:23.466Z,92.66
2019-02-05T00:12:49.575Z,92.57
2019-02-05T00:13:15.915Z,92.38
2019-02-05T00:13:42.022Z,92.38
2019-02-05T00:14:08.125Z,92.38
2019-02-05T00:14:34.560Z,92.57
2019-02-05T00:15:00.697Z,92.47
2019-02-05T00:15:26.825Z,92.94
2019-02-05T00:15:53.003Z,93.04
2019-02-05T00:16:19.188Z,93.23
2019-02-05T00:16:45.551Z,92.66
2019-02-05T00:17:11.644Z,93.41
2019-02-05T00:17:37.739Z,93.32
2019-02-05T00:18:04.120Z,93.51
2019-02-05T00:18:30.224Z,93.13
2019-02-05T00:18:56.976Z,93.7
2019-02-05T00:19:23.285Z,94.27
2019-02-05T00:19:49.374Z,94.56
2019-02-05T00:20:15.957Z,94.93
2019-02-05T00:20:42.098Z,95.41
2019-02-05T00:21:08.250Z,95.31
2019-02-05T00:21:34.482Z,94.93
2019-02-05T00:22:00.586Z,95.03
2019-02-05T00:22:27.157Z,95.22
2019-02-05T00:22:53.264Z,95.6
2019-02-05T00:23:19.397Z,95.6
2019-02-05T00:23:45.616Z,96.45
2019-02-05T00:24:11.725Z,95.98
2019-02-05T00:24:38.094Z,95.98
2019-02-05T00:25:04.192Z,96.36
2019-02-05T00:25:30.300Z,96.45
2019-02-05T00:26:05.810Z,97.02
2019-02-05T00:26:24.762Z,96.64
2019-02-05T00:26:50.890Z,96.83
2019-02-05T00:27:17.188Z,97.69
2019-02-05T00:27:43.292Z,97.5
2019-02-05T00:28:09.650Z,97.4
2019-02-05T00:28:35.757Z,98.25
2019-02-05T00:29:01.941Z,98.44
2019-02-05T00:29:28.332Z,98.54
2019-02-05T00:29:54.433Z,98.73
2019-02-05T00:30:20.789Z,98.54
2019-02-05T00:30:46.894Z,99.01
2019-02-05T00:31:13.006Z,98.92
2019-02-05T00:31:39.417Z,99.11
2019-02-05T00:32:05.479Z,99.3
2019-02-05T00:32:31.606Z,99.01
2019-02-05T00:32:58.094Z,99.2
2019-02-05T00:33:24.229Z,99.49
2019-02-05T00:33:50.622Z,99.2
2019-02-05T00:34:16.758Z,99.68
2019-02-05T00:34:42.864Z,99.2
2019-02-05T00:35:09.345Z,99.77
2019-02-05T00:35:35.447Z,99.87
2019-02-05T00:36:01.558Z,99.77
2019-02-05T00:36:27.922Z,99.99
2019-02-05T00:36:54.056Z,99.58
2019-02-05T00:37:20.416Z,99.96
2019-02-05T00:37:46.585Z,99.99
2019-02-05T00:38:12.727Z,99.99
2019-02-05T00:38:38.880Z,99.99
2019-02-05T00:39:04.978Z,99.99
2019-02-05T00:39:31.357Z,99.99
2019-02-05T00:39:57.508Z,99.99
2019-02-05T00:40:23.612Z,99.99
2019-02-05T00:40:50.125Z,99.99
2019-02-05T00:41:16.229Z,99.99
2019-02-05T00:41:42.338Z,99.99
2019-02-05T00:42:08.909Z,99.99
2019-02-05T00:42:35.007Z,99.99
2019-02-05T00:43:01.765Z,99.99
2019-02-05T00:43:27.841Z,99.99
2019-02-05T00:43:53.981Z,99.99
2019-02-05T00:44:20.310Z,99.99
2019-02-05T00:44:46.411Z,99.99
2019-02-05T00:45:12.608Z,99.99
2019-02-05T00:45:38.980Z,99.99
2019-02-05T00:46:05.088Z,99.99
2019-02-05T00:46:31.443Z,99.99
2019-02-05T00:46:57.545Z,99.99
2019-02-05T00:47:23.655Z,99.99
2019-02-05T00:47:50.232Z,99.99
2019-02-05T00:48:16.355Z,99.99
2019-02-05T00:48:42.616Z,99.99
2019-02-05T00:49:08.728Z,99.99
2019-02-05T00:49:34.841Z,99.99
2019-02-05T00:50:01.274Z,99.99
2019-02-05T00:50:27.358Z,99.99
2019-02-05T00:50:53.464Z,99.99
2019-02-05T00:51:20.006Z,99.99
2019-02-05T00:51:46.114Z,99.99
2019-02-05T00:52:12.537Z,99.99
2019-02-05T00:52:38.652Z,99.99
2019-02-05T00:53:04.758Z,99.99
2019-02-05T00:53:31.084Z,99.99
2019-02-05T00:53:57.190Z,99.99
2019-02-05T00:54:23.338Z,99.99
2019-02-05T00:54:49.669Z,99.99
2019-02-05T00:55:15.918Z,99.99
2019-02-05T00:55:42.329Z,99.99
2019-02-05T00:56:17.258Z,99.99
2019-02-05T00:56:36.519Z,99.99
2019-02-05T00:57:02.865Z,99.99
2019-02-05T00:57:28.969Z,99.99
2019-02-05T00:57:55.253Z,99.99
2019-02-05T00:58:21.355Z,99.99
2019-02-05T00:58:47.461Z,99.99
2019-02-05T00:59:13.854Z,99.99
2019-02-05T00:59:39.933Z,99.99
2019-02-05T01:00:06.199Z,99.99
2019-02-05T01:00:32.631Z,99.99
2019-02-05T01:00:58.734Z,99.99
2019-02-05T01:01:25.833Z,99.99
2019-02-05T01:01:51.959Z,99.99
2019-02-05T01:02:18.063Z,99.99
2019-02-05T01:02:44.422Z,99.99
2019-02-05T01:03:10.581Z,99.99
2019-02-05T01:03:36.899Z,99.99
2019-02-05T01:04:02.999Z,99.99
2019-02-05T01:04:29.135Z,99.99
2019-02-05T01:04:55.750Z,99.99
2019-02-05T01:05:21.854Z,99.99
2019-02-05T01:05:47.978Z,99.99
2019-02-05T01:06:14.508Z,99.99
2019-02-05T01:06:40.612Z,99.99
2019-02-05T01:07:06.927Z,99.99
2019-02-05T01:07:33.033Z,99.99
2019-02-05T01:07:59.160Z,99.99
2019-02-05T01:08:25.537Z,99.99
2019-02-05T01:08:51.643Z,99.99
2019-02-05T01:09:17.752Z,99.99
2019-02-05T01:09:44.163Z,99.99
2019-02-05T01:10:10.453Z,99.99
2019-02-05T01:10:36.892Z,99.99
2019-02-05T01:11:02.996Z,99.99
2019-02-05T01:11:29.102Z,99.99
2019-02-05T01:11:55.984Z,99.99
2019-02-05T01:12:22.087Z,99.99
2019-02-05T01:12:48.436Z,99.99
2019-02-05T01:13:14.550Z,99.99
2019-02-05T01:13:40.674Z,99.99
2019-02-05T01:14:07.053Z,99.99
2019-02-05T01:14:33.183Z,99.99
2019-02-05T01:14:59.285Z,99.99
2019-02-05T01:15:25.680Z,99.99
2019-02-05T01:15:51.783Z,99.99
2019-02-05T01:16:18.268Z,99.99
2019-02-05T01:16:44.371Z,99.99
2019-02-05T01:17:10.473Z,99.99
2019-02-05T01:17:37.024Z,99.99
2019-02-05T01:18:03.138Z,99.99
2019-02-05T01:18:29.270Z,99.99
2019-02-05T01:18:55.450Z,99.99
2019-02-05T01:19:21.550Z,99.99
2019-02-05T01:19:47.889Z,99.99
2019-02-05T01:20:14.011Z,99.99
2019-02-05T01:20:40.144Z,99.99
2019-02-05T01:21:06.494Z,99.99
2019-02-05T01:21:32.594Z,99.99
2019-02-05T01:21:59.053Z,99.99
2019-02-05T01:22:25.218Z,99.99
2019-02-05T01:22:51.317Z,99.99
2019-02-05T01:23:17.739Z,99.99
2019-02-05T01:23:43.845Z,99.99
2019-02-05T01:24:09.948Z,99.99
2019-02-05T01:24:36.413Z,99.99
2019-02-05T01:25:02.534Z,99.99
2019-02-05T01:25:29.174Z,99.99
2019-02-05T01:25:55.276Z,99.99
2019-02-05T01:26:28.839Z,99.99
2019-02-05T01:26:49.481Z,99.99
2019-02-05T01:27:15.588Z,99.99
2019-02-05T01:27:41.966Z,99.99
2019-02-05T01:28:08.077Z,99.99
2019-02-05T01:28:34.177Z,99.99
2019-02-05T01:29:00.692Z,99.99
2019-02-05T01:29:26.794Z,99.99
2019-02-05T01:29:52.895Z,99.99
2019-02-05T01:30:19.510Z,99.99
2019-02-05T01:30:45.615Z,99.99
2019-02-05T01:31:11.817Z,99.99
2019-02-05T01:31:37.953Z,99.99
2019-02-05T01:32:04.056Z,99.99
2019-02-05T01:32:30.589Z,99.99
2019-02-05T01:32:56.696Z,99.99
2019-02-05T01:33:22.875Z,99.99
2019-02-05T01:33:49.215Z,99.99
2019-02-05T01:34:15.319Z,99.99
2019-02-05T01:34:41.650Z,99.99
2019-02-05T01:35:07.793Z,99.99
2019-02-05T01:35:33.959Z,99.99
2019-02-05T01:36:00.261Z,99.99
2019-02-05T01:36:26.370Z,99.99
2019-02-05T01:36:52.752Z,99.99
2019-02-05T01:37:18.876Z,99.99
2019-02-05T01:37:44.975Z,99.99
2019-02-05T01:38:11.516Z,99.99
2019-02-05T01:38:37.646Z,99.99
2019-02-05T01:39:03.774Z,99.99
2019-02-05T01:39:30.092Z,99.99
2019-02-05T01:39:56.194Z,99.99
2019-02-05T01:40:22.661Z,99.99
2019-02-05T01:40:48.763Z,99.99
2019-02-05T01:41:14.874Z,99.99
2019-02-05T01:41:41.354Z,99.99
2019-02-05T01:42:07.476Z,99.99
2019-02-05T01:42:33.565Z,99.99
2019-02-05T01:42:59.869Z,99.99
2019-02-05T01:43:25.988Z,99.99
2019-02-05T01:43:52.282Z,99.99
2019-02-05T01:44:18.384Z,99.99
2019-02-05T01:44:44.488Z,99.99
2019-02-05T01:45:10.849Z,99.99
2019-02-05T01:45:36.945Z,99.99
2019-02-05T01:46:03.266Z,99.99
2019-02-05T01:46:29.367Z,99.99
2019-02-05T01:46:55.466Z,99.99
2019-02-05T01:47:21.802Z,99.99
2019-02-05T01:47:47.911Z,99.99
2019-02-05T01:48:14.016Z,99.99
2019-02-05T01:48:40.763Z,99.99
2019-02-05T01:49:06.870Z,99.99
2019-02-05T01:49:33.470Z,99.99
2019-02-05T01:49:59.573Z,99.99
2019-02-05T01:50:25.682Z,99.99
2019-02-05T01:50:52.089Z,99.99
2019-02-05T01:51:18.188Z,99.99
2019-02-05T01:51:44.357Z,99.99
2019-02-05T01:52:10.748Z,99.99
2019-02-05T01:52:36.853Z,99.99
2019-02-05T01:53:03.302Z,99.99
2019-02-05T01:53:29.409Z,99.99
2019-02-05T01:53:55.510Z,99.99
2019-02-05T01:54:21.939Z,99.99
2019-02-05T01:54:48.042Z,99.99
2019-02-05T01:55:14.170Z,99.99
2019-02-05T01:55:40.303Z,99.99
2019-02-05T01:56:06.404Z,99.99
2019-02-05T01:56:40.325Z,99.99
2019-02-05T01:57:01.116Z,99.99
2019-02-05T01:57:27.222Z,99.99
2019-02-05T01:57:53.533Z,99.99
2019-02-05T01:58:19.653Z,99.99
2019-02-05T01:58:46.592Z,99.99
2019-02-05T01:59:12.699Z,99.99
2019-02-05T01:59:38.874Z,99.99
2019-02-05T02:00:05.190Z,99.99
2019-02-05T02:00:31.299Z,99.99
2019-02-05T02:00:57.698Z,99.99
2019-02-05T02:01:23.810Z,99.99
2019-02-05T02:01:49.941Z,99.99
2019-02-05T02:02:16.608Z,99.99
2019-02-05T02:02:42.712Z,99.99
2019-02-05T02:03:08.825Z,99.99
2019-02-05T02:03:35.123Z,99.99
2019-02-05T02:04:01.293Z,99.99
2019-02-05T02:04:27.573Z,99.99
2019-02-05T02:04:53.675Z,99.99
2019-02-05T02:05:19.813Z,99.99
2019-02-05T02:05:46.173Z,99.99
2019-02-05T02:06:12.279Z,99.99
2019-02-05T02:06:38.385Z,99.99
2019-02-05T02:07:04.736Z,99.99
2019-02-05T02:07:30.873Z,99.99
2019-02-05T02:07:57.258Z,99.99
2019-02-05T02:08:23.358Z,99.99
2019-02-05T02:08:49.465Z,99.99
2019-02-05T02:09:16.039Z,99.99
2019-02-05T02:09:42.148Z,99.99
2019-02-05T02:10:08.599Z,99.99
2019-02-05T02:10:34.962Z,99.99
2019-02-05T02:11:01.069Z,99.99
2019-02-05T02:11:27.388Z,99.99
2019-02-05T02:11:53.523Z,99.99
2019-02-05T02:12:19.652Z,99.99
2019-02-05T02:12:45.909Z,99.99
2019-02-05T02:13:12.046Z,99.99
2019-02-05T02:13:38.478Z,99.99
2019-02-05T02:14:04.579Z,99.99
2019-02-05T02:14:30.683Z,99.99
2019-02-05T02:14:57.064Z,99.99
2019-02-05T02:15:23.166Z,99.99
2019-02-05T02:15:49.292Z,99.99
2019-02-05T02:16:15.873Z,99.99
2019-02-05T02:16:41.983Z,99.99
2019-02-05T02:17:08.279Z,99.99
2019-02-05T02:17:34.420Z,99.99
2019-02-05T02:18:00.511Z,99.99
2019-02-05T02:18:26.817Z,99.99
2019-02-05T02:18:52.920Z,99.99
2019-02-05T02:19:19.070Z,99.99
2019-02-05T02:19:45.494Z,99.99
2019-02-05T02:20:11.599Z,99.99
2019-02-05T02:20:38.088Z,99.99
2019-02-05T02:21:04.225Z,99.99
2019-02-05T02:21:30.325Z,99.99
2019-02-05T02:21:56.720Z,99.99
2019-02-05T02:22:22.833Z,99.99
2019-02-05T02:22:49.294Z,99.99
2019-02-05T02:23:15.427Z,99.99
2019-02-05T02:23:41.534Z,99.99
2019-02-05T02:24:08.082Z,99.99
2019-02-05T02:24:34.184Z,99.99
2019-02-05T02:25:00.292Z,99.99
2019-02-05T02:25:26.966Z,99.99
2019-02-05T02:25:53.066Z,99.99
2019-02-05T02:26:19.394Z,99.99
2019-02-05T02:26:51.924Z,99.99
2019-02-05T02:27:13.587Z,99.99
2019-02-05T02:27:40.127Z,99.99
2019-02-05T02:28:06.232Z,99.99
2019-02-05T02:28:32.553Z,99.99
2019-02-05T02:28:58.831Z,99.99
2019-02-05T02:29:24.940Z,99.99
2019-02-05T02:29:51.318Z,99.99
2019-02-05T02:30:17.422Z,99.99
2019-02-05T02:30:43.588Z,99.99
2019-02-05T02:31:09.908Z,99.99
2019-02-05T02:31:36.018Z,99.99
2019-02-05T02:32:02.410Z,99.99
2019-02-05T02:32:28.508Z,99.99
2019-02-05T02:32:54.618Z,99.99
2019-02-05T02:33:21.074Z,99.99
2019-02-05T02:33:47.259Z,99.99
2019-02-05T02:34:13.336Z,99.99
2019-02-05T02:34:39.703Z,99.99
2019-02-05T02:35:05.805Z,99.99
2019-02-05T02:35:32.087Z,99.99
2019-02-05T02:35:58.252Z,99.99
2019-02-05T02:36:24.388Z,99.99
2019-02-05T02:36:50.608Z,99.99
2019-02-05T02:37:16.806Z,99.99
2019-02-05T02:37:42.908Z,99.99
2019-02-05T02:38:09.281Z,99.99
2019-02-05T02:38:35.385Z,99.99
2019-02-05T02:39:01.804Z,99.99
2019-02-05T02:39:27.940Z,99.99
2019-02-05T02:39:54.041Z,99.99
2019-02-05T02:40:20.537Z,99.99
2019-02-05T02:40:46.696Z,99.99
2019-02-05T02:41:13.095Z,99.99
2019-02-05T02:41:39.201Z,99.99
2019-02-05T02:42:05.407Z,99.99
2019-02-05T02:42:31.797Z,99.99
2019-02-05T02:42:57.900Z,99.99
2019-02-05T02:43:24.064Z,99.99
2019-02-05T02:43:50.491Z,99.99
2019-02-05T02:44:16.629Z,99.99
2019-02-05T02:44:43.078Z,99.99
2019-02-05T02:45:09.190Z,99.99
2019-02-05T02:45:35.323Z,99.99
2019-02-05T02:46:01.782Z,99.99
2019-02-05T02:46:27.899Z,99.99
2019-02-05T02:46:54.054Z,99.99
2019-02-05T02:47:20.390Z,99.99
2019-02-05T02:47:47.517Z,99.99
2019-02-05T02:48:13.832Z,99.99
2019-02-05T02:48:39.941Z,99.99
2019-02-05T02:49:06.070Z,99.99
2019-02-05T02:49:32.415Z,99.99
2019-02-05T02:49:58.522Z,99.99
2019-02-05T02:50:24.981Z,99.99
2019-02-05T02:50:51.083Z,99.99
2019-02-05T02:51:17.210Z,99.99
2019-02-05T02:51:43.512Z,99.99
2019-02-05T02:52:09.647Z,99.99
2019-02-05T02:52:35.775Z,99.99
2019-02-05T02:53:01.896Z,99.99
2019-02-05T02:53:28.057Z,99.99
2019-02-05T02:53:54.523Z,99.99
2019-02-05T02:54:20.630Z,99.99
2019-02-05T02:54:46.728Z,99.99
2019-02-05T02:55:13.926Z,99.99
2019-02-05T02:55:40.036Z,99.99
2019-02-05T02:56:06.501Z,99.99
2019-02-05T02:56:32.631Z,99.99
2019-02-05T02:57:04.688Z,99.99
2019-02-05T02:57:26.411Z,99.99
2019-02-05T02:57:52.517Z,99.99
2019-02-05T02:58:18.955Z,99.99
2019-02-05T02:58:45.427Z,99.99
2019-02-05T02:59:11.534Z,99.99
2019-02-05T02:59:37.892Z,99.99
2019-02-05T03:00:03.998Z,99.99
2019-02-05T03:00:30.098Z,99.99
2019-02-05T03:00:56.543Z,99.99
2019-02-05T03:01:22.643Z,99.99
2019-02-05T03:01:48.750Z,99.99
2019-02-05T03:02:15.153Z,99.99
2019-02-05T03:02:41.265Z,99.99
2019-02-05T03:03:07.841Z,99.99
2019-02-05T03:03:33.943Z,99.99
2019-02-05T03:04:00.151Z,99.99
2019-02-05T03:04:26.477Z,99.99
2019-02-05T03:04:52.631Z,99.99
2019-02-05T03:05:18.734Z,99.99
2019-02-05T03:05:45.046Z,99.99
2019-02-05T03:06:11.173Z,99.99
2019-02-05T03:06:37.525Z,99.99
2019-02-05T03:07:03.656Z,99.99
2019-02-05T03:07:29.762Z,99.99
2019-02-05T03:07:56.515Z,99.99
2019-02-05T03:08:22.626Z,99.99
2019-02-05T03:08:49.021Z,99.99
2019-02-05T03:09:15.332Z,99.99
2019-02-05T03:09:41.470Z,99.99
2019-02-05T03:10:07.599Z,99.99
2019-02-05T03:10:33.717Z,99.99
2019-02-05T03:10:59.859Z,99.99
2019-02-05T03:11:26.303Z,99.99
2019-02-05T03:11:52.407Z,99.99
2019-02-05T03:12:18.805Z,99.99
2019-02-05T03:12:44.973Z,99.99
2019-02-05T03:13:11.074Z,99.99
2019-02-05T03:13:37.429Z,99.99
2019-02-05T03:14:03.568Z,99.99
2019-02-05T03:14:29.697Z,99.99
2019-02-05T03:14:56.157Z,99.99
2019-02-05T03:15:22.259Z,99.99
2019-02-05T03:15:48.396Z,99.99
2019-02-05T03:16:14.535Z,99.99
2019-02-05T03:16:40.635Z,99.99
2019-02-05T03:17:07.109Z,99.99
2019-02-05T03:17:33.274Z,99.99
2019-02-05T03:17:59.519Z,99.99
2019-02-05T03:18:25.958Z,99.99
2019-02-05T03:18:52.118Z,99.99
2019-02-05T03:19:18.490Z,99.99
2019-02-05T03:19:44.597Z,99.99
2019-02-05T03:20:10.964Z,99.99
2019-02-05T03:20:37.588Z,99.99
2019-02-05T03:21:03.688Z,99.99
2019-02-05T03:21:29.819Z,99.99
2019-02-05T03:21:56.229Z,99.99
2019-02-05T03:22:22.364Z,99.99
2019-02-05T03:22:48.485Z,99.99
2019-02-05T03:23:14.615Z,99.99
2019-02-05T03:23:40.728Z,99.99
2019-02-05T03:24:07.017Z,99.99
2019-02-05T03:24:33.170Z,99.99
2019-02-05T03:24:59.303Z,99.99
2019-02-05T03:25:25.759Z,99.99
2019-02-05T03:25:51.851Z,99.99
2019-02-05T03:26:18.215Z,99.99
2019-02-05T03:26:44.317Z,99.99
2019-02-05T03:27:17.562Z,99.99
2019-02-05T03:27:39.745Z,99.99
2019-02-05T03:28:06.834Z,99.99
2019-02-05T03:28:32.935Z,99.99
2019-02-05T03:28:59.246Z,99.99
2019-02-05T03:29:25.356Z,99.99
2019-02-05T03:29:51.715Z,99.99
2019-02-05T03:30:17.861Z,99.99
2019-02-05T03:30:44.006Z,99.99
2019-02-05T03:31:11.132Z,99.99
2019-02-05T03:31:37.311Z,99.99
2019-02-05T03:32:03.762Z,99.99
2019-02-05T03:32:29.886Z,99.99
2019-02-05T03:32:56.094Z,99.99
2019-02-05T03:33:22.271Z,99.99
2019-02-05T03:33:48.382Z,99.99
2019-02-05T03:34:14.542Z,99.99
2019-02-05T03:34:40.936Z,99.99
2019-02-05T03:35:07.038Z,99.99
2019-02-05T03:35:33.349Z,99.99
2019-02-05T03:35:59.457Z,99.99
2019-02-05T03:36:25.593Z,99.99
2019-02-05T03:36:52.274Z,99.99
2019-02-05T03:37:18.376Z,99.99
2019-02-05T03:37:44.477Z,99.99
2019-02-05T03:38:10.954Z,99.99
2019-02-05T03:38:37.174Z,99.99
2019-02-05T03:39:03.474Z,99.99
2019-02-05T03:39:29.611Z,99.99
2019-02-05T03:39:55.716Z,99.99
2019-02-05T03:40:22.025Z,99.99
2019-02-05T03:40:48.127Z,99.99
2019-02-05T03:41:14.258Z,99.99
2019-02-05T03:41:40.778Z,99.99
2019-02-05T03:42:06.890Z,99.99
2019-02-05T03:42:33.089Z,99.99
2019-02-05T03:42:59.188Z,99.99
2019-02-05T03:43:25.289Z,99.99
2019-02-05T03:43:51.681Z,99.99
2019-02-05T03:44:17.814Z,99.99
2019-02-05T03:44:43.944Z,99.99
2019-02-05T03:45:10.159Z,99.99
2019-02-05T03:45:36.297Z,99.99
2019-02-05T03:46:02.959Z,99.99
2019-02-05T03:46:29.067Z,99.99
2019-02-05T03:46:55.170Z,99.99
2019-02-05T03:47:21.439Z,99.99
2019-02-05T03:47:47.545Z,99.99
2019-02-05T03:48:13.652Z,99.99
2019-02-05T03:48:39.924Z,99.99
2019-02-05T03:49:06.027Z,99.99
2019-02-05T03:49:32.463Z,99.99
2019-02-05T03:49:58.531Z,99.99
2019-02-05T03:50:24.638Z,99.99
2019-02-05T03:50:50.992Z,99.99
2019-02-05T03:51:17.123Z,99.99
2019-02-05T03:51:43.258Z,99.99
2019-02-05T03:52:09.669Z,99.99
2019-02-05T03:52:35.767Z,99.99
2019-02-05T03:53:02.018Z,99.99
2019-02-05T03:53:28.117Z,99.99
2019-02-05T03:53:54.224Z,99.99
2019-02-05T03:54:20.535Z,99.99
2019-02-05T03:54:46.643Z,99.99
2019-02-05T03:55:13.119Z,99.99
2019-02-05T03:55:39.389Z,99.99
2019-02-05T03:56:05.518Z,99.99
2019-02-05T03:56:31.638Z,99.99
2019-02-05T03:56:57.798Z,99.99
2019-02-05T03:57:30.694Z,99.99
2019-02-05T03:57:51.074Z,99.99
2019-02-05T03:58:17.178Z,99.99
2019-02-05T03:58:43.456Z,99.99
2019-02-05T03:59:09.618Z,99.99
2019-02-05T03:59:35.724Z,99.99
2019-02-05T04:00:02.075Z,99.99
2019-02-05T04:00:28.211Z,99.99
2019-02-05T04:00:54.321Z,99.99
2019-02-05T04:01:20.444Z,99.99
2019-02-05T04:01:46.571Z,99.99
2019-02-05T04:02:13.035Z,99.99
2019-02-05T04:02:39.136Z,99.99
2019-02-05T04:03:05.240Z,99.99
2019-02-05T04:03:31.606Z,99.99
2019-02-05T04:03:57.759Z,99.99
2019-02-05T04:04:23.886Z,99.99
2019-02-05T04:04:50.105Z,99.99
2019-02-05T04:05:16.318Z,99.99
2019-02-05T04:05:43.343Z,99.99
2019-02-05T04:06:09.511Z,99.99
2019-02-05T04:06:35.571Z,99.99
2019-02-05T04:07:01.870Z,99.99
2019-02-05T04:07:27.985Z,99.99
2019-02-05T04:07:54.331Z,99.99
2019-02-05T04:08:20.438Z,99.99
2019-02-05T04:08:46.541Z,99.99
2019-02-05T04:09:13.062Z,99.99
2019-02-05T04:09:39.195Z,99.99
2019-02-05T04:10:05.365Z,99.99
2019-02-05T04:10:31.678Z,99.99
2019-02-05T04:10:57.779Z,99.99
2019-02-05T04:11:24.361Z,99.99
2019-02-05T04:11:50.464Z,99.99
2019-02-05T04:12:17.399Z,99.99
2019-02-05T04:12:43.838Z,99.99
2019-02-05T04:13:09.974Z,99.99
2019-02-05T04:13:36.311Z,99.99
2019-02-05T04:14:02.608Z,99.99
2019-02-05T04:14:28.718Z,99.99
2019-02-05T04:14:55.110Z,99.99
2019-02-05T04:15:21.308Z,99.99
2019-02-05T04:15:47.438Z,99.99
2019-02-05T04:16:13.677Z,99.99
2019-02-05T04:16:39.782Z,99.99
2019-02-05T04:17:05.931Z,99.99
2019-02-05T04:17:32.037Z,99.99
2019-02-05T04:17:58.177Z,99.99
2019-02-05T04:18:24.611Z,99.99
2019-02-05T04:18:50.747Z,99.99
2019-02-05T04:19:16.913Z,99.99
2019-02-05T04:19:43.390Z,99.99
2019-02-05T04:20:09.497Z,99.99
2019-02-05T04:20:36.034Z,99.99
2019-02-05T04:21:02.160Z,99.99
2019-02-05T04:21:28.301Z,99.99
2019-02-05T04:21:54.989Z,99.99
2019-02-05T04:22:21.131Z,99.99
2019-02-05T04:22:47.230Z,99.99
2019-02-05T04:23:13.539Z,99.99
2019-02-05T04:23:39.643Z,99.99
2019-02-05T04:24:05.852Z,99.99
2019-02-05T04:24:31.959Z,99.99
2019-02-05T04:24:58.102Z,99.99
2019-02-05T04:25:24.477Z,99.99
2019-02-05T04:25:50.586Z,99.99
2019-02-05T04:26:16.942Z,99.99
2019-02-05T04:26:43.051Z,99.99
2019-02-05T04:27:09.179Z,99.99
2019-02-05T04:27:43.578Z,99.99
2019-02-05T04:28:03.667Z,99.99
2019-02-05T04:28:29.788Z,99.99
2019-02-05T04:28:55.912Z,99.99
2019-02-05T04:29:22.010Z,99.99
2019-02-05T04:29:48.523Z,99.99
2019-02-05T04:30:14.630Z,99.99
2019-02-05T04:30:40.736Z,99.99
2019-02-05T04:31:07.383Z,99.99
2019-02-05T04:31:33.493Z,99.99
2019-02-05T04:31:59.864Z,99.99
2019-02-05T04:32:25.972Z,99.99
2019-02-05T04:32:52.099Z,99.99
2019-02-05T04:33:18.374Z,99.99
2019-02-05T04:33:44.484Z,99.99
2019-02-05T04:34:10.614Z,99.99
2019-02-05T04:34:36.942Z,99.99
2019-02-05T04:35:03.073Z,99.99
2019-02-05T04:35:29.397Z,99.99
2019-02-05T04:35:55.504Z,99.99
2019-02-05T04:36:21.662Z,99.99
2019-02-05T04:36:47.986Z,99.99
2019-02-05T04:37:14.095Z,99.99
2019-02-05T04:37:40.196Z,99.99
2019-02-05T04:38:06.709Z,99.99
2019-02-05T04:38:32.868Z,99.99
2019-02-05T04:38:59.409Z,99.99
2019-02-05T04:39:25.531Z,99.99
2019-02-05T04:39:51.639Z,99.99
2019-02-05T04:40:17.992Z,99.99
2019-02-05T04:40:44.127Z,99.99
2019-02-05T04:41:10.260Z,99.99
2019-02-05T04:41:36.599Z,99.99
2019-02-05T04:42:02.705Z,99.99
2019-02-05T04:42:29.063Z,99.99
2019-02-05T04:42:55.637Z,99.99
2019-02-05T04:43:21.742Z,99.99
2019-02-05T04:43:48.087Z,99.99
2019-02-05T04:44:14.192Z,99.99
2019-02-05T04:44:40.346Z,99.99
2019-02-05T04:45:06.569Z,99.99
2019-02-05T04:45:34.693Z,99.99
2019-02-05T04:46:01.037Z,99.99
2019-02-05T04:46:27.142Z,99.99
2019-02-05T04:46:53.251Z,99.99
2019-02-05T04:47:19.613Z,99.99
2019-02-05T04:47:45.719Z,99.99
2019-02-05T04:48:11.973Z,99.99
2019-02-05T04:48:38.137Z,99.99
2019-02-05T04:49:04.666Z,99.99
2019-02-05T04:49:31.226Z,99.99
2019-02-05T04:49:57.367Z,99.99
2019-02-05T04:50:23.489Z,99.99
2019-02-05T04:50:49.850Z,99.99
2019-02-05T04:51:16.011Z,99.99
2019-02-05T04:51:42.529Z,99.99
2019-02-05T04:52:08.632Z,99.99
2019-02-05T04:52:34.782Z,99.99
2019-02-05T04:53:01.093Z,99.99
2019-02-05T04:53:27.199Z,99.99
2019-02-05T04:53:53.563Z,99.99
2019-02-05T04:54:19.696Z,99.99
2019-02-05T04:54:45.799Z,99.99
2019-02-05T04:55:12.222Z,99.99
2019-02-05T04:55:38.353Z,99.99
2019-02-05T04:56:04.491Z,99.99
2019-02-05T04:56:31.042Z,99.99
2019-02-05T04:56:57.145Z,99.99
2019-02-05T04:57:23.761Z,99.99
2019-02-05T04:57:57.142Z,99.99
2019-02-05T04:58:19.009Z,99.99
2019-02-05T04:58:45.152Z,99.99
2019-02-05T04:59:11.260Z,99.99
2019-02-05T04:59:37.579Z,99.99
2019-02-05T05:00:03.681Z,99.99
2019-02-05T05:00:29.785Z,99.99
2019-02-05T05:00:56.379Z,99.99
2019-02-05T05:01:22.544Z,99.99
2019-02-05T05:01:48.653Z,99.99
2019-02-05T05:02:15.187Z,99.99
2019-02-05T05:02:41.295Z,99.99
2019-02-05T05:03:07.739Z,99.99
2019-02-05T05:03:33.942Z,99.99
2019-02-05T05:04:00.050Z,99.99
2019-02-05T05:04:26.391Z,99.99
2019-02-05T05:04:52.494Z,99.99
2019-02-05T05:05:18.600Z,99.99
2019-02-05T05:05:44.976Z,99.99
2019-02-05T05:06:11.078Z,99.99
2019-02-05T05:06:37.386Z,99.99
2019-02-05T05:07:03.529Z,99.99
2019-02-05T05:07:29.632Z,99.99
2019-02-05T05:07:56.051Z,99.99
2019-02-05T05:08:22.154Z,99.99
2019-02-05T05:08:48.588Z,99.99
2019-02-05T05:09:14.711Z,99.99
2019-02-05T05:09:40.812Z,99.99
2019-02-05T05:10:06.956Z,99.99
2019-02-05T05:10:33.058Z,99.99
2019-02-05T05:10:59.198Z,99.99
2019-02-05T05:11:25.583Z,99.99
2019-02-05T05:11:51.766Z,99.99
2019-02-05T05:12:18.082Z,99.99
2019-02-05T05:12:44.216Z,99.99
2019-02-05T05:13:10.353Z,99.99
2019-02-05T05:13:36.891Z,99.99
2019-02-05T05:14:03.037Z,99.99
2019-02-05T05:14:29.126Z,99.99
2019-02-05T05:14:55.780Z,99.99
2019-02-05T05:15:21.887Z,99.99
2019-02-05T05:15:48.165Z,99.99
2019-02-05T05:16:14.322Z,99.99
2019-02-05T05:16:40.489Z,99.99
2019-02-05T05:17:06.881Z,99.99
2019-02-05T05:17:33.039Z,99.99
2019-02-05T05:17:59.140Z,99.99
2019-02-05T05:18:26.118Z,99.99
2019-02-05T05:18:52.226Z,99.99
2019-02-05T05:19:18.522Z,99.99
2019-02-05T05:19:44.646Z,99.99
2019-02-05T05:20:10.932Z,99.99
2019-02-05T05:20:37.494Z,99.99
2019-02-05T05:21:03.599Z,99.99
2019-02-05T05:21:30.056Z,99.99
2019-02-05T05:21:56.335Z,99.99
2019-02-05T05:22:22.456Z,99.99
2019-02-05T05:22:48.594Z,99.99
2019-02-05T05:23:14.705Z,99.99
2019-02-05T05:23:40.803Z,99.99
2019-02-05T05:24:07.096Z,99.99
2019-02-05T05:24:33.225Z,99.99
2019-02-05T05:24:59.646Z,99.99
2019-02-05T05:25:25.767Z,99.99
2019-02-05T05:25:51.904Z,99.99
2019-02-05T05:26:18.464Z,99.99
2019-02-05T05:26:44.567Z,99.99
2019-02-05T05:27:10.676Z,99.99
2019-02-05T05:27:37.015Z,99.99
2019-02-05T05:28:09.861Z,99.99
2019-02-05T05:28:31.240Z,99.99
2019-02-05T05:28:57.349Z,99.99
2019-02-05T05:29:23.468Z,99.99
2019-02-05T05:29:49.777Z,99.99
2019-02-05T05:30:15.928Z,99.99
2019-02-05T05:30:41.998Z,99.99
2019-02-05T05:31:08.396Z,99.99
2019-02-05T05:31:34.530Z,99.99
2019-02-05T05:32:00.946Z,99.99
2019-02-05T05:32:27.035Z,99.99
2019-02-05T05:32:53.190Z,99.99
2019-02-05T05:33:19.481Z,99.99
2019-02-05T05:33:45.627Z,99.99
2019-02-05T05:34:11.762Z,99.99
2019-02-05T05:34:38.112Z,99.99
2019-02-05T05:35:04.235Z,99.99
2019-02-05T05:35:40.601Z,99.99
2019-02-05T05:35:59.631Z,99.99
2019-02-05T05:36:25.745Z,99.99
2019-02-05T05:36:52.248Z,99.99
2019-02-05T05:37:18.384Z,99.99
2019-02-05T05:37:44.714Z,99.99
2019-02-05T05:38:10.860Z,99.99
2019-02-05T05:38:36.957Z,99.99